Kaunas International Airport


Codes: EYKA/KUN
Name: Kaunas International Airport
City: Kaunas
Country: Lithuania
Elevation: 256 ft.
Website:
Wikipedia:

Photos at Kaunas International Airport


   Photos courtesy of SpottingLog. You can add your own sightings and photos by signing up for a free trial today.



No photos found.

Weather at Kaunas International Airport


Time (UTC)DescriptionTempratureWindCloud coverageVisibilityPressureHumidity
23-May-2024 21:00Light Rain19°C9 mph, SE25%10000m1021hPa66%
24-May-2024 00:00Broken Clouds17°C9 mph, SE57%10000m1022hPa80%
24-May-2024 03:00Overcast Clouds14°C7 mph, SE93%10000m1023hPa93%
24-May-2024 06:00Light Rain19°C11 mph, SE93%10000m1024hPa77%
24-May-2024 09:00Broken Clouds23°C11 mph, SE82%10000m1024hPa63%
24-May-2024 12:00Light Rain24°C11 mph, SE72%10000m1024hPa59%
24-May-2024 15:00Light Rain21°C11 mph, SE84%10000m1024hPa74%
24-May-2024 18:00Light Rain18°C11 mph, SE88%10000m1024hPa86%
24-May-2024 21:00Scattered Clouds16°C9 mph, SE50%10000m1024hPa91%
25-May-2024 00:00Light Rain14°C9 mph, SE31%10000m1025hPa95%
25-May-2024 03:00Clear Sky13°C7 mph, SE2%10000m1025hPa95%
25-May-2024 06:00Clear Sky18°C11 mph, SE1%10000m1025hPa77%
25-May-2024 09:00Clear Sky22°C11 mph, SE0%10000m1025hPa59%
25-May-2024 12:00Clear Sky24°C11 mph, SE7%10000m1024hPa51%
25-May-2024 15:00Light Rain21°C13 mph, SE23%6178m1024hPa67%
25-May-2024 18:00Light Rain18°C9 mph, SE23%10000m1024hPa84%
25-May-2024 21:00Overcast Clouds15°C7 mph, SE100%10000m1025hPa91%
26-May-2024 00:00Overcast Clouds15°C7 mph, SE100%10000m1025hPa87%
26-May-2024 03:00Overcast Clouds14°C2 mph, SE100%10000m1026hPa90%
26-May-2024 06:00Overcast Clouds18°C9 mph, SE90%10000m1027hPa68%
26-May-2024 09:00Clear Sky22°C11 mph, SE3%10000m1027hPa48%
26-May-2024 12:00Clear Sky23°C11 mph, SE1%10000m1027hPa42%
26-May-2024 15:00Clear Sky22°C9 mph, SE1%10000m1026hPa50%
26-May-2024 18:00Clear Sky17°C7 mph, SE2%10000m1027hPa72%
26-May-2024 21:00Clear Sky15°C7 mph, SE1%10000m1027hPa79%
27-May-2024 00:00Clear Sky13°C7 mph, SE4%10000m1028hPa80%
27-May-2024 03:00Scattered Clouds12°C7 mph, SE33%10000m1028hPa80%
27-May-2024 06:00Scattered Clouds18°C7 mph, SE34%10000m1028hPa63%
27-May-2024 09:00Broken Clouds22°C9 mph, SE66%10000m1027hPa50%
27-May-2024 12:00Broken Clouds24°C9 mph, S72%10000m1026hPa43%
27-May-2024 15:00Overcast Clouds23°C7 mph, SE86%10000m1025hPa48%
27-May-2024 18:00Overcast Clouds18°C7 mph, SE94%10000m1025hPa69%
27-May-2024 21:00Scattered Clouds15°C7 mph, SE25%10000m1025hPa72%
28-May-2024 00:00Scattered Clouds14°C4 mph, SE42%10000m1024hPa79%
28-May-2024 03:00Scattered Clouds13°C4 mph, SE47%10000m1024hPa81%
28-May-2024 06:00Broken Clouds19°C7 mph, SE54%10000m1023hPa66%
28-May-2024 09:00Scattered Clouds24°C9 mph, SE38%10000m1022hPa49%
28-May-2024 12:00Broken Clouds24°C9 mph, SE54%10000m1020hPa47%
28-May-2024 15:00Overcast Clouds23°C7 mph, E97%10000m1019hPa57%
28-May-2024 18:00Light Rain16°C4 mph, SW77%6273m1019hPa92%